sensor_id;sensor_type;location;lat;lon;timestamp;pressure;altitude;pressure_sealevel;temperature;humidity
21803;BME280;18591;47.080;22.214;2024-01-16T00:01:02;98314.50;;;4.36;65.46
21803;BME280;18591;47.080;22.214;2024-01-16T00:03:05;98299.34;;;4.40;65.56
21803;BME280;18591;47.080;22.214;2024-01-16T00:05:07;98303.88;;;4.36;65.43
21803;BME280;18591;47.080;22.214;2024-01-16T00:07:10;98324.28;;;4.35;65.30
21803;BME280;18591;47.080;22.214;2024-01-16T00:09:12;98334.31;;;4.27;65.54
21803;BME280;18591;47.080;22.214;2024-01-16T00:11:14;98333.13;;;4.36;65.44
21803;BME280;18591;47.080;22.214;2024-01-16T00:13:17;98323.31;;;4.38;65.14
21803;BME280;18591;47.080;22.214;2024-01-16T00:15:19;98337.88;;;4.26;65.11
21803;BME280;18591;47.080;22.214;2024-01-16T00:17:22;98351.97;;;4.28;65.21
21803;BME280;18591;47.080;22.214;2024-01-16T00:19:24;98337.09;;;4.23;65.26
21803;BME280;18591;47.080;22.214;2024-01-16T00:21:27;98324.06;;;4.15;65.40
21803;BME280;18591;47.080;22.214;2024-01-16T00:23:29;98322.69;;;4.30;64.93
21803;BME280;18591;47.080;22.214;2024-01-16T00:25:35;98318.22;;;4.32;64.90
21803;BME280;18591;47.080;22.214;2024-01-16T00:27:37;98320.94;;;4.29;64.62
21803;BME280;18591;47.080;22.214;2024-01-16T00:29:40;98327.94;;;4.31;64.74
21803;BME280;18591;47.080;22.214;2024-01-16T00:31:42;98339.63;;;4.27;64.72
21803;BME280;18591;47.080;22.214;2024-01-16T00:33:45;98349.66;;;4.18;65.11
21803;BME280;18591;47.080;22.214;2024-01-16T00:35:47;98363.47;;;4.29;64.74
21803;BME280;18591;47.080;22.214;2024-01-16T00:37:50;98364.41;;;4.28;64.33
21803;BME280;18591;47.080;22.214;2024-01-16T00:39:52;98355.50;;;4.29;64.65
21803;BME280;18591;47.080;22.214;2024-01-16T00:41:54;98351.16;;;4.26;64.57
21803;BME280;18591;47.080;22.214;2024-01-16T00:43:58;98361.78;;;4.26;64.43
21803;BME280;18591;47.080;22.214;2024-01-16T00:46:01;98368.00;;;4.27;64.44
21803;BME280;18591;47.080;22.214;2024-01-16T00:48:03;98381.44;;;4.22;64.17
21803;BME280;18591;47.080;22.214;2024-01-16T00:50:08;98401.28;;;4.10;64.51
21803;BME280;18591;47.080;22.214;2024-01-16T00:52:11;98404.88;;;4.08;64.94
21803;BME280;18591;47.080;22.214;2024-01-16T00:54:13;98397.53;;;4.16;64.27
21803;BME280;18591;47.080;22.214;2024-01-16T00:56:16;98386.25;;;4.09;64.49
21803;BME280;18591;47.080;22.214;2024-01-16T00:58:18;98385.66;;;4.00;64.71
21803;BME280;18591;47.080;22.214;2024-01-16T01:00:21;98390.88;;;4.03;64.81
21803;BME280;18591;47.080;22.214;2024-01-16T01:02:23;98396.09;;;4.06;64.48
21803;BME280;18591;47.080;22.214;2024-01-16T01:04:25;98399.25;;;4.19;64.25
21803;BME280;18591;47.080;22.214;2024-01-16T01:06:28;98397.53;;;4.16;64.11
21803;BME280;18591;47.080;22.214;2024-01-16T01:08:30;98408.34;;;4.11;64.41
21803;BME280;18591;47.080;22.214;2024-01-16T01:10:33;98404.63;;;4.17;64.10
21803;BME280;18591;47.080;22.214;2024-01-16T01:12:35;98401.75;;;4.23;64.21
21803;BME280;18591;47.080;22.214;2024-01-16T01:14:38;98401.03;;;4.18;63.90
21803;BME280;18591;47.080;22.214;2024-01-16T01:16:40;98403.69;;;4.18;64.20
21803;BME280;18591;47.080;22.214;2024-01-16T01:18:43;98402.06;;;4.14;64.10
21803;BME280;18591;47.080;22.214;2024-01-16T01:20:45;98414.47;;;4.13;64.15
21803;BME280;18591;47.080;22.214;2024-01-16T01:22:48;98409.16;;;4.13;64.42
21803;BME280;18591;47.080;22.214;2024-01-16T01:24:50;98417.13;;;4.13;64.13
21803;BME280;18591;47.080;22.214;2024-01-16T01:26:53;98403.03;;;4.11;64.09
21803;BME280;18591;47.080;22.214;2024-01-16T01:28:55;98400.59;;;4.04;64.18
21803;BME280;18591;47.080;22.214;2024-01-16T01:30:58;98409.44;;;4.04;64.27
21803;BME280;18591;47.080;22.214;2024-01-16T01:33:00;98411.50;;;3.95;64.30
21803;BME280;18591;47.080;22.214;2024-01-16T01:35:04;98411.25;;;4.02;64.24
21803;BME280;18591;47.080;22.214;2024-01-16T01:37:06;98409.94;;;3.87;64.41
21803;BME280;18591;47.080;22.214;2024-01-16T01:39:09;98414.16;;;3.95;64.17
21803;BME280;18591;47.080;22.214;2024-01-16T01:41:13;98420.22;;;3.98;63.78
21803;BME280;18591;47.080;22.214;2024-01-16T01:43:41;98414.69;;;3.76;63.61
21803;BME280;18591;47.080;22.214;2024-01-16T01:45:44;98406.31;;;3.90;63.70
21803;BME280;18591;47.080;22.214;2024-01-16T01:47:47;98409.78;;;3.92;63.61
21803;BME280;18591;47.080;22.214;2024-01-16T01:49:51;98424.84;;;3.93;63.21
21803;BME280;18591;47.080;22.214;2024-01-16T01:51:54;98423.16;;;3.90;63.60
21803;BME280;18591;47.080;22.214;2024-01-16T01:53:57;98422.88;;;3.98;63.39
21803;BME280;18591;47.080;22.214;2024-01-16T01:56:05;98419.38;;;3.98;63.22
21803;BME280;18591;47.080;22.214;2024-01-16T01:58:10;98419.34;;;3.99;63.20
21803;BME280;18591;47.080;22.214;2024-01-16T02:00:13;98407.28;;;3.87;63.74
21803;BME280;18591;47.080;22.214;2024-01-16T02:02:16;98396.94;;;3.78;63.97
21803;BME280;18591;47.080;22.214;2024-01-16T02:04:19;98403.97;;;3.79;63.84
21803;BME280;18591;47.080;22.214;2024-01-16T02:06:22;98409.78;;;3.92;63.65
21803;BME280;18591;47.080;22.214;2024-01-16T02:08:25;98416.78;;;3.96;63.21
21803;BME280;18591;47.080;22.214;2024-01-16T02:10:28;98416.03;;;3.91;63.11
21803;BME280;18591;47.080;22.214;2024-01-16T02:12:30;98416.94;;;3.90;63.38
21803;BME280;18591;47.080;22.214;2024-01-16T02:14:33;98423.91;;;3.94;63.01
21803;BME280;18591;47.080;22.214;2024-01-16T02:16:37;98430.28;;;3.88;62.91
21803;BME280;18591;47.080;22.214;2024-01-16T02:18:42;98444.44;;;3.89;62.88
21803;BME280;18591;47.080;22.214;2024-01-16T02:20:45;98457.75;;;3.87;62.93
21803;BME280;18591;47.080;22.214;2024-01-16T02:22:52;98460.47;;;3.86;62.84
21803;BME280;18591;47.080;22.214;2024-01-16T02:24:58;98462.06;;;3.91;63.07
21803;BME280;18591;47.080;22.214;2024-01-16T02:27:00;98469.28;;;3.88;62.69
21803;BME280;18591;47.080;22.214;2024-01-16T02:29:03;98469.34;;;3.85;62.63
21803;BME280;18591;47.080;22.214;2024-01-16T02:31:08;98479.31;;;3.77;62.70
21803;BME280;18591;47.080;22.214;2024-01-16T02:33:11;98477.38;;;3.83;62.86
21803;BME280;18591;47.080;22.214;2024-01-16T02:35:13;98474.72;;;3.83;62.72
21803;BME280;18591;47.080;22.214;2024-01-16T02:37:17;98483.13;;;3.66;62.61
21803;BME280;18591;47.080;22.214;2024-01-16T02:39:19;98482.88;;;3.76;62.31
21803;BME280;18591;47.080;22.214;2024-01-16T02:41:22;98489.03;;;3.78;62.40
21803;BME280;18591;47.080;22.214;2024-01-16T02:43:24;98491.69;;;3.78;62.47
21803;BME280;18591;47.080;22.214;2024-01-16T02:45:28;98485.66;;;3.71;62.29
21803;BME280;18591;47.080;22.214;2024-01-16T02:47:31;98490.97;;;3.71;62.43
21803;BME280;18591;47.080;22.214;2024-01-16T02:49:33;98493.63;;;3.71;62.47
21803;BME280;18591;47.080;22.214;2024-01-16T02:51:36;98485.75;;;3.68;62.28
21803;BME280;18591;47.080;22.214;2024-01-16T02:53:38;98498.13;;;3.69;62.22
21803;BME280;18591;47.080;22.214;2024-01-16T02:55:41;98500.94;;;3.63;62.74
21803;BME280;18591;47.080;22.214;2024-01-16T02:57:43;98510.66;;;3.64;62.66
21803;BME280;18591;47.080;22.214;2024-01-16T02:59:46;98519.66;;;3.58;63.05
21803;BME280;18591;47.080;22.214;2024-01-16T03:01:48;98519.47;;;3.64;62.90
21803;BME280;18591;47.080;22.214;2024-01-16T03:03:51;98520.28;;;3.68;62.94
21803;BME280;18591;47.080;22.214;2024-01-16T03:05:53;98518.59;;;3.64;62.84
21803;BME280;18591;47.080;22.214;2024-01-16T03:07:58;98518.59;;;3.64;62.93
21803;BME280;18591;47.080;22.214;2024-01-16T03:10:01;98520.41;;;3.63;63.03
21803;BME280;18591;47.080;22.214;2024-01-16T03:12:03;98522.09;;;3.66;62.76
21803;BME280;18591;47.080;22.214;2024-01-16T03:14:06;98523.97;;;3.62;62.51
21803;BME280;18591;47.080;22.214;2024-01-16T03:16:11;98518.72;;;3.59;62.45
21803;BME280;18591;47.080;22.214;2024-01-16T03:18:14;98518.78;;;3.58;62.96
21803;BME280;18591;47.080;22.214;2024-01-16T03:20:17;98521.38;;;3.59;62.28
21803;BME280;18591;47.080;22.214;2024-01-16T03:22:20;98520.59;;;3.56;62.53
21803;BME280;18591;47.080;22.214;2024-01-16T03:24:25;98527.53;;;3.61;62.62
21803;BME280;18591;47.080;22.214;2024-01-16T03:26:28;98539.09;;;3.60;62.31
21803;BME280;18591;47.080;22.214;2024-01-16T03:28:30;98539.09;;;3.59;62.37
21803;BME280;18591;47.080;22.214;2024-01-16T03:30:33;98551.63;;;3.54;61.97
21803;BME280;18591;47.080;22.214;2024-01-16T03:32:36;98551.03;;;3.42;62.07
21803;BME280;18591;47.080;22.214;2024-01-16T03:34:39;98545.75;;;3.41;62.39
21803;BME280;18591;47.080;22.214;2024-01-16T03:36:42;98548.19;;;3.50;62.24
21803;BME280;18591;47.080;22.214;2024-01-16T03:38:45;98549.06;;;3.51;61.94
21803;BME280;18591;47.080;22.214;2024-01-16T03:40:47;98553.63;;;3.45;62.27
21803;BME280;18591;47.080;22.214;2024-01-16T03:42:50;98552.63;;;3.49;62.37
21803;BME280;18591;47.080;22.214;2024-01-16T03:44:52;98546.78;;;3.35;62.39
21803;BME280;18591;47.080;22.214;2024-01-16T03:46:55;98544.03;;;3.40;62.14
21803;BME280;18591;47.080;22.214;2024-01-16T03:48:57;98555.50;;;3.42;61.90
21803;BME280;18591;47.080;22.214;2024-01-16T03:51:00;98557.19;;;3.44;62.13
21803;BME280;18591;47.080;22.214;2024-01-16T03:53:03;98562.53;;;3.43;61.92
21803;BME280;18591;47.080;22.214;2024-01-16T03:55:08;98576.00;;;3.35;62.09
21803;BME280;18591;47.080;22.214;2024-01-16T03:57:11;98567.94;;;3.38;61.62
21803;BME280;18591;47.080;22.214;2024-01-16T03:59:14;98569.06;;;3.30;61.76
21803;BME280;18591;47.080;22.214;2024-01-16T04:01:16;98583.00;;;3.38;61.69
21803;BME280;18591;47.080;22.214;2024-01-16T04:03:19;98585.78;;;3.33;62.04
21803;BME280;18591;47.080;22.214;2024-01-16T04:05:21;98593.72;;;3.35;61.85
21803;BME280;18591;47.080;22.214;2024-01-16T04:07:24;98594.59;;;3.34;61.64
21803;BME280;18591;47.080;22.214;2024-01-16T04:09:29;98593.63;;;3.38;61.62
21803;BME280;18591;47.080;22.214;2024-01-16T04:11:31;98607.16;;;3.27;61.41
21803;BME280;18591;47.080;22.214;2024-01-16T04:13:34;98609.66;;;3.33;61.89
21803;BME280;18591;47.080;22.214;2024-01-16T04:16:00;98629.28;;;3.26;61.52
21803;BME280;18591;47.080;22.214;2024-01-16T04:18:02;98619.50;;;3.30;61.68
21803;BME280;18591;47.080;22.214;2024-01-16T04:20:05;98621.31;;;3.27;62.24
21803;BME280;18591;47.080;22.214;2024-01-16T04:22:09;98631.81;;;3.32;61.55
21803;BME280;18591;47.080;22.214;2024-01-16T04:24:11;98625.06;;;3.19;62.05
21803;BME280;18591;47.080;22.214;2024-01-16T04:26:14;98625.66;;;3.32;61.22
21803;BME280;18591;47.080;22.214;2024-01-16T04:28:16;98623.84;;;3.32;61.65
21803;BME280;18591;47.080;22.214;2024-01-16T04:30:19;98628.25;;;3.33;61.34
21803;BME280;18591;47.080;22.214;2024-01-16T04:32:22;98635.25;;;3.36;60.85
21803;BME280;18591;47.080;22.214;2024-01-16T04:34:25;98632.69;;;3.33;60.93
21803;BME280;18591;47.080;22.214;2024-01-16T04:36:27;98638.16;;;3.26;61.31
21803;BME280;18591;47.080;22.214;2024-01-16T04:38:30;98638.16;;;3.26;61.27
21803;BME280;18591;47.080;22.214;2024-01-16T04:40:32;98642.53;;;3.29;60.90
21803;BME280;18591;47.080;22.214;2024-01-16T04:42:35;98637.22;;;3.29;60.94
21803;BME280;18591;47.080;22.214;2024-01-16T04:44:37;98636.53;;;3.19;61.17
21803;BME280;18591;47.080;22.214;2024-01-16T04:46:40;98640.97;;;3.19;60.91
21803;BME280;18591;47.080;22.214;2024-01-16T04:48:42;98640.84;;;3.23;61.29
21803;BME280;18591;47.080;22.214;2024-01-16T04:50:46;98638.34;;;3.17;61.13
21803;BME280;18591;47.080;22.214;2024-01-16T04:52:49;98647.25;;;3.15;61.36
21803;BME280;18591;47.080;22.214;2024-01-16T04:54:55;98641.94;;;3.16;61.20
21803;BME280;18591;47.080;22.214;2024-01-16T04:56:57;98646.47;;;3.10;61.00
21803;BME280;18591;47.080;22.214;2024-01-16T04:59:00;98640.16;;;3.15;61.11
21803;BME280;18591;47.080;22.214;2024-01-16T05:01:02;98647.22;;;3.16;61.02
21803;BME280;18591;47.080;22.214;2024-01-16T05:03:05;98651.63;;;3.17;61.03
21803;BME280;18591;47.080;22.214;2024-01-16T05:05:07;98664.91;;;3.16;60.96
21803;BME280;18591;47.080;22.214;2024-01-16T05:07:11;98656.25;;;3.08;60.77
21803;BME280;18591;47.080;22.214;2024-01-16T05:09:13;98665.16;;;3.05;61.00
21803;BME280;18591;47.080;22.214;2024-01-16T05:11:15;98664.28;;;3.04;61.06
21803;BME280;18591;47.080;22.214;2024-01-16T05:13:18;98664.91;;;3.16;60.50
21803;BME280;18591;47.080;22.214;2024-01-16T05:15:20;98667.84;;;3.03;60.89
21803;BME280;18591;47.080;22.214;2024-01-16T05:17:23;98671.41;;;3.02;60.48
21803;BME280;18591;47.080;22.214;2024-01-16T05:19:25;98672.16;;;3.09;60.74
21803;BME280;18591;47.080;22.214;2024-01-16T05:21:28;98671.16;;;3.13;60.67
21803;BME280;18591;47.080;22.214;2024-01-16T05:23:31;98662.25;;;3.17;60.46
21803;BME280;18591;47.080;22.214;2024-01-16T05:25:33;98664.91;;;3.16;60.16
21803;BME280;18591;47.080;22.214;2024-01-16T05:27:36;98669.34;;;3.15;59.89
21803;BME280;18591;47.080;22.214;2024-01-16T05:29:40;98675.66;;;3.11;60.36
21803;BME280;18591;47.080;22.214;2024-01-16T05:31:45;98676.63;;;3.05;60.13
21803;BME280;18591;47.080;22.214;2024-01-16T05:33:48;98682.72;;;3.11;59.96
21803;BME280;18591;47.080;22.214;2024-01-16T05:35:50;98687.22;;;3.07;60.11
21803;BME280;18591;47.080;22.214;2024-01-16T05:37:53;98684.56;;;3.09;60.21
21803;BME280;18591;47.080;22.214;2024-01-16T05:39:56;98688.03;;;3.11;60.41
21803;BME280;18591;47.080;22.214;2024-01-16T05:41:58;98697.00;;;3.05;60.17
21803;BME280;18591;47.080;22.214;2024-01-16T05:44:01;98696.03;;;3.09;60.38
21803;BME280;18591;47.080;22.214;2024-01-16T05:46:06;98702.34;;;3.03;60.27
21803;BME280;18591;47.080;22.214;2024-01-16T05:48:09;98705.81;;;3.05;60.31
21803;BME280;18591;47.080;22.214;2024-01-16T05:50:12;98715.00;;;2.91;60.35
21803;BME280;18591;47.080;22.214;2024-01-16T05:52:15;98722.81;;;2.98;60.50
21803;BME280;18591;47.080;22.214;2024-01-16T05:54:18;98720.94;;;3.02;60.48
21803;BME280;18591;47.080;22.214;2024-01-16T05:56:20;98719.16;;;3.02;60.33
21803;BME280;18591;47.080;22.214;2024-01-16T05:58:23;98733.41;;;2.98;60.40
21803;BME280;18591;47.080;22.214;2024-01-16T06:00:25;98723.63;;;3.00;60.28
21803;BME280;18591;47.080;22.214;2024-01-16T06:02:27;98724.53;;;2.99;60.14
21803;BME280;18591;47.080;22.214;2024-01-16T06:04:30;98732.53;;;2.98;60.58
21803;BME280;18591;47.080;22.214;2024-01-16T06:06:33;98736.16;;;2.94;60.55
21803;BME280;18591;47.080;22.214;2024-01-16T06:08:35;98742.34;;;2.93;60.43
21803;BME280;18591;47.080;22.214;2024-01-16T06:10:38;98746.78;;;2.94;60.34
21803;BME280;18591;47.080;22.214;2024-01-16T06:12:40;98749.50;;;2.91;60.54
21803;BME280;18591;47.080;22.214;2024-01-16T06:14:43;98754.72;;;2.94;60.32
21803;BME280;18591;47.080;22.214;2024-01-16T06:16:45;98761.72;;;2.98;60.60
21803;BME280;18591;47.080;22.214;2024-01-16T06:18:48;98752.94;;;2.94;60.43
21803;BME280;18591;47.080;22.214;2024-01-16T06:20:50;98764.44;;;2.95;60.33
21803;BME280;18591;47.080;22.214;2024-01-16T06:22:53;98769.72;;;2.95;60.83
21803;BME280;18591;47.080;22.214;2024-01-16T06:24:55;98776.91;;;2.90;60.72
21803;BME280;18591;47.080;22.214;2024-01-16T06:26:58;98780.31;;;2.96;60.65
21803;BME280;18591;47.080;22.214;2024-01-16T06:29:00;98776.81;;;2.94;60.91
21803;BME280;18591;47.080;22.214;2024-01-16T06:31:03;98787.44;;;2.94;60.64
21803;BME280;18591;47.080;22.214;2024-01-16T06:33:05;98794.38;;;3.01;60.43
21803;BME280;18591;47.080;22.214;2024-01-16T06:35:08;98796.16;;;3.01;60.37
21803;BME280;18591;47.080;22.214;2024-01-16T06:37:10;98802.41;;;2.98;60.70
21803;BME280;18591;47.080;22.214;2024-01-16T06:39:13;98802.28;;;3.04;60.38
21803;BME280;18591;47.080;22.214;2024-01-16T06:41:16;98814.75;;;3.01;60.35
21803;BME280;18591;47.080;22.214;2024-01-16T06:43:18;98816.47;;;3.02;60.49
21803;BME280;18591;47.080;22.214;2024-01-16T06:45:21;98820.84;;;3.06;60.46
21803;BME280;18591;47.080;22.214;2024-01-16T06:47:24;98823.72;;;2.92;60.32
21803;BME280;18591;47.080;22.214;2024-01-16T06:49:27;98826.25;;;3.00;60.72
21803;BME280;18591;47.080;22.214;2024-01-16T06:51:29;98825.22;;;3.07;60.79
21803;BME280;18591;47.080;22.214;2024-01-16T06:53:32;98830.47;;;3.10;60.56
21803;BME280;18591;47.080;22.214;2024-01-16T06:55:35;98835.69;;;3.15;60.52
21803;BME280;18591;47.080;22.214;2024-01-16T06:57:37;98834.78;;;3.16;60.71
21803;BME280;18591;47.080;22.214;2024-01-16T06:59:40;98843.66;;;3.13;60.53
21803;BME280;18591;47.080;22.214;2024-01-16T07:01:42;98841.00;;;3.15;60.58
21803;BME280;18591;47.080;22.214;2024-01-16T07:03:46;98849.81;;;3.17;60.89
21803;BME280;18591;47.080;22.214;2024-01-16T07:05:49;98853.31;;;3.19;60.38
21803;BME280;18591;47.080;22.214;2024-01-16T07:07:52;98847.91;;;3.23;60.74
21803;BME280;18591;47.080;22.214;2024-01-16T07:09:54;98853.34;;;3.17;60.64
21803;BME280;18591;47.080;22.214;2024-01-16T07:11:57;98856.72;;;3.25;60.28
21803;BME280;18591;47.080;22.214;2024-01-16T07:14:00;98861.09;;;3.28;60.63
21803;BME280;18591;47.080;22.214;2024-01-16T07:16:03;98862.84;;;3.29;61.01
21803;BME280;18591;47.080;22.214;2024-01-16T07:18:06;98877.66;;;3.41;60.88
21803;BME280;18591;47.080;22.214;2024-01-16T07:20:09;98876.63;;;3.48;60.91
21803;BME280;18591;47.080;22.214;2024-01-16T07:22:12;98880.06;;;3.53;60.67
21803;BME280;18591;47.080;22.214;2024-01-16T07:24:16;98893.09;;;3.65;60.36
21803;BME280;18591;47.080;22.214;2024-01-16T07:26:18;98893.13;;;3.64;60.66
21803;BME280;18591;47.080;22.214;2024-01-16T07:28:21;98895.59;;;3.73;60.63
21803;BME280;18591;47.080;22.214;2024-01-16T07:30:27;98899.34;;;3.63;60.91
21803;BME280;18591;47.080;22.214;2024-01-16T07:32:29;98900.16;;;3.66;60.33
21803;BME280;18591;47.080;22.214;2024-01-16T07:34:33;98900.16;;;3.66;60.79
21803;BME280;18591;47.080;22.214;2024-01-16T07:36:36;98902.78;;;3.68;60.91
21803;BME280;18591;47.080;22.214;2024-01-16T07:38:39;98904.38;;;3.77;60.50
21803;BME280;18591;47.080;22.214;2024-01-16T07:40:41;98902.31;;;3.89;60.05
21803;BME280;18591;47.080;22.214;2024-01-16T07:42:44;98911.00;;;3.98;60.10
21803;BME280;18591;47.080;22.214;2024-01-16T07:44:46;98910.22;;;3.92;59.78
21803;BME280;18591;47.080;22.214;2024-01-16T07:46:49;98915.22;;;4.08;59.76
21803;BME280;18591;47.080;22.214;2024-01-16T07:48:52;98913.34;;;4.13;59.98
21803;BME280;18591;47.080;22.214;2024-01-16T07:50:54;98909.72;;;4.15;59.85
21803;BME280;18591;47.080;22.214;2024-01-16T07:52:57;98922.75;;;4.28;59.64
21803;BME280;18591;47.080;22.214;2024-01-16T07:54:59;98923.97;;;4.13;59.04
21803;BME280;18591;47.080;22.214;2024-01-16T07:57:02;98916.75;;;4.18;58.84
21803;BME280;18591;47.080;22.214;2024-01-16T07:59:05;98922.94;;;4.20;59.33
21803;BME280;18591;47.080;22.214;2024-01-16T08:01:07;98937.16;;;4.18;58.98
21803;BME280;18591;47.080;22.214;2024-01-16T08:03:10;98941.56;;;4.19;59.20
21803;BME280;18591;47.080;22.214;2024-01-16T08:05:14;98943.50;;;4.12;59.01
21803;BME280;18591;47.080;22.214;2024-01-16T08:07:17;98948.91;;;4.06;59.45
21803;BME280;18591;47.080;22.214;2024-01-16T08:09:20;98958.28;;;4.24;59.49
21803;BME280;18591;47.080;22.214;2024-01-16T08:11:23;98968.25;;;4.14;59.11
21803;BME280;18591;47.080;22.214;2024-01-16T08:13:25;98964.91;;;4.04;59.24
21803;BME280;18591;47.080;22.214;2024-01-16T08:15:29;98977.28;;;4.07;59.25
21803;BME280;18591;47.080;22.214;2024-01-16T08:17:32;98973.59;;;4.12;59.46
21803;BME280;18591;47.080;22.214;2024-01-16T08:19:34;98984.38;;;4.06;59.10
21803;BME280;18591;47.080;22.214;2024-01-16T08:21:38;98980.03;;;4.01;59.34
21803;BME280;18591;47.080;22.214;2024-01-16T08:23:40;98982.69;;;4.02;59.54
21803;BME280;18591;47.080;22.214;2024-01-16T08:25:43;98985.94;;;4.15;59.18
21803;BME280;18591;47.080;22.214;2024-01-16T08:27:45;98981.66;;;4.09;58.84
21803;BME280;18591;47.080;22.214;2024-01-16T08:29:48;98986.19;;;4.03;59.26
21803;BME280;18591;47.080;22.214;2024-01-16T08:31:53;98994.03;;;4.10;58.94
21803;BME280;18591;47.080;22.214;2024-01-16T08:33:56;98998.59;;;4.04;58.99
21803;BME280;18591;47.080;22.214;2024-01-16T08:35:59;99003.78;;;4.10;58.63
21803;BME280;18591;47.080;22.214;2024-01-16T08:38:03;98987.69;;;4.16;58.60
21803;BME280;18591;47.080;22.214;2024-01-16T08:40:06;98998.47;;;4.10;58.33
21803;BME280;18591;47.080;22.214;2024-01-16T08:42:09;99009.19;;;4.05;59.23
21803;BME280;18591;47.080;22.214;2024-01-16T08:44:13;99005.66;;;4.05;59.39
21803;BME280;18591;47.080;22.214;2024-01-16T08:46:17;99010.97;;;4.06;59.05
21803;BME280;18591;47.080;22.214;2024-01-16T08:48:21;99015.44;;;4.04;59.34
21803;BME280;18591;47.080;22.214;2024-01-16T08:50:24;99016.13;;;4.12;59.17
21803;BME280;18591;47.080;22.214;2024-01-16T08:52:27;99015.38;;;4.06;59.43
21803;BME280;18591;47.080;22.214;2024-01-16T08:54:29;99014.25;;;4.18;59.62
21803;BME280;18591;47.080;22.214;2024-01-16T08:56:32;99018.31;;;4.35;59.07
21803;BME280;18591;47.080;22.214;2024-01-16T08:58:34;99008.72;;;4.28;58.95
21803;BME280;18591;47.080;22.214;2024-01-16T09:00:39;99012.13;;;4.35;58.90
21803;BME280;18591;47.080;22.214;2024-01-16T09:02:42;99024.34;;;4.44;58.67
21803;BME280;18591;47.080;22.214;2024-01-16T09:04:45;99010.09;;;4.46;58.41
21803;BME280;18591;47.080;22.214;2024-01-16T09:06:47;99017.78;;;4.60;58.82
21803;BME280;18591;47.080;22.214;2024-01-16T09:08:50;99017.72;;;4.63;58.30
21803;BME280;18591;47.080;22.214;2024-01-16T09:10:54;99020.50;;;4.57;57.94
21803;BME280;18591;47.080;22.214;2024-01-16T09:12:56;99018.66;;;4.61;58.30
21803;BME280;18591;47.080;22.214;2024-01-16T09:14:59;99014.34;;;4.55;57.75
21803;BME280;18591;47.080;22.214;2024-01-16T09:17:02;99014.22;;;4.61;58.46
21803;BME280;18591;47.080;22.214;2024-01-16T09:19:05;99018.59;;;4.62;58.84
21803;BME280;18591;47.080;22.214;2024-01-16T09:21:07;99014.56;;;4.85;58.85
21803;BME280;18591;47.080;22.214;2024-01-16T09:23:10;99015.22;;;4.94;58.48
21803;BME280;18591;47.080;22.214;2024-01-16T09:25:13;99021.66;;;4.86;57.47
21803;BME280;18591;47.080;22.214;2024-01-16T09:27:15;99032.97;;;4.94;57.14
21803;BME280;18591;47.080;22.214;2024-01-16T09:29:18;99033.00;;;4.92;56.60
21803;BME280;18591;47.080;22.214;2024-01-16T09:31:21;99034.97;;;4.84;57.29
21803;BME280;18591;47.080;22.214;2024-01-16T09:33:23;99026.84;;;4.90;57.13
21803;BME280;18591;47.080;22.214;2024-01-16T09:35:27;99042.81;;;4.90;56.94
21803;BME280;18591;47.080;22.214;2024-01-16T09:37:30;99041.09;;;4.88;57.02
21803;BME280;18591;47.080;22.214;2024-01-16T09:39:32;99043.66;;;4.92;56.65
21803;BME280;18591;47.080;22.214;2024-01-16T09:41:37;99048.84;;;4.98;57.41
21803;BME280;18591;47.080;22.214;2024-01-16T09:43:40;99048.09;;;4.93;56.51
21803;BME280;18591;47.080;22.214;2024-01-16T09:45:45;99046.41;;;4.89;55.90
21803;BME280;18591;47.080;22.214;2024-01-16T09:47:51;99047.91;;;5.01;56.50
21803;BME280;18591;47.080;22.214;2024-01-16T09:49:56;99046.97;;;5.02;55.74
21803;BME280;18591;47.080;22.214;2024-01-16T09:51:59;99051.56;;;4.95;56.18
21803;BME280;18591;47.080;22.214;2024-01-16T09:54:03;99054.97;;;5.02;55.96
21803;BME280;18591;47.080;22.214;2024-01-16T09:56:15;99054.47;;;4.86;56.63
21803;BME280;18591;47.080;22.214;2024-01-16T09:58:19;99063.13;;;4.96;56.71
21803;BME280;18591;47.080;22.214;2024-01-16T10:00:27;99064.00;;;4.95;56.37
21803;BME280;18591;47.080;22.214;2024-01-16T10:02:30;99059.53;;;4.95;56.10
21803;BME280;18591;47.080;22.214;2024-01-16T10:04:34;99050.50;;;5.04;56.29
21803;BME280;18591;47.080;22.214;2024-01-16T10:06:37;99054.97;;;5.02;56.09
21803;BME280;18591;47.080;22.214;2024-01-16T10:08:40;99054.47;;;4.86;55.30
21803;BME280;18591;47.080;22.214;2024-01-16T10:10:43;99059.69;;;4.89;55.77
21803;BME280;18591;47.080;22.214;2024-01-16T10:12:51;99062.38;;;4.88;56.27
21803;BME280;18591;47.080;22.214;2024-01-16T10:14:55;99063.72;;;5.07;56.25
21803;BME280;18591;47.080;22.214;2024-01-16T10:17:02;99052.03;;;5.13;56.12
21803;BME280;18591;47.080;22.214;2024-01-16T10:19:08;99058.91;;;5.23;55.66
21803;BME280;18591;47.080;22.214;2024-01-16T10:21:37;99057.25;;;5.19;55.00
21803;BME280;18591;47.080;22.214;2024-01-16T10:23:39;99057.09;;;5.23;55.72
21803;BME280;18591;47.080;22.214;2024-01-16T10:25:43;99060.50;;;5.30;55.53
21803;BME280;18591;47.080;22.214;2024-01-16T10:27:45;99063.84;;;5.38;55.50
21803;BME280;18591;47.080;22.214;2024-01-16T10:30:14;99063.81;;;5.40;55.38
21803;BME280;18591;47.080;22.214;2024-01-16T10:32:38;99073.47;;;5.44;55.03
21803;BME280;18591;47.080;22.214;2024-01-16T10:34:41;99075.16;;;5.48;55.49
21803;BME280;18591;47.080;22.214;2024-01-16T10:36:44;99072.31;;;5.56;55.74
21803;BME280;18591;47.080;22.214;2024-01-16T10:38:46;99072.34;;;5.54;55.23
21803;BME280;18591;47.080;22.214;2024-01-16T10:41:04;99077.56;;;5.59;55.18
21803;BME280;18591;47.080;22.214;2024-01-16T10:43:07;99063.38;;;5.58;54.75
21803;BME280;18591;47.080;22.214;2024-01-16T10:45:16;99078.41;;;5.61;54.46
21803;BME280;18591;47.080;22.214;2024-01-16T10:47:21;99064.22;;;5.59;53.98
21803;BME280;18591;47.080;22.214;2024-01-16T10:49:24;99066.78;;;5.63;54.79
21803;BME280;18591;47.080;22.214;2024-01-16T10:51:42;99077.72;;;5.53;53.31
21803;BME280;18591;47.080;22.214;2024-01-16T10:53:45;99078.72;;;5.47;53.53